sensor_id;sensor_type;location;lat;lon;timestamp;P1;durP1;ratioP1;P2;durP2;ratioP2
48623;SDS011;34422;45.802;16.114;2023-04-24T00:01:22;8.40;;;6.00;;
48623;SDS011;34422;45.802;16.114;2023-04-24T00:03:48;8.70;;;5.28;;
48623;SDS011;34422;45.802;16.114;2023-04-24T00:06:15;9.70;;;5.90;;
48623;SDS011;34422;45.802;16.114;2023-04-24T00:08:43;8.65;;;5.00;;
48623;SDS011;34422;45.802;16.114;2023-04-24T00:11:10;7.60;;;5.22;;
48623;SDS011;34422;45.802;16.114;2023-04-24T00:13:37;7.22;;;5.40;;
48623;SDS011;34422;45.802;16.114;2023-04-24T00:16:04;8.30;;;4.93;;
48623;SDS011;34422;45.802;16.114;2023-04-24T00:18:32;6.95;;;4.85;;
48623;SDS011;34422;45.802;16.114;2023-04-24T00:20:59;8.35;;;5.00;;
48623;SDS011;34422;45.802;16.114;2023-04-24T00:23:26;8.20;;;5.25;;
48623;SDS011;34422;45.802;16.114;2023-04-24T00:25:52;7.40;;;4.82;;
48623;SDS011;34422;45.802;16.114;2023-04-24T00:28:19;8.55;;;5.32;;
48623;SDS011;34422;45.802;16.114;2023-04-24T00:30:46;9.13;;;6.10;;
48623;SDS011;34422;45.802;16.114;2023-04-24T00:33:12;11.73;;;6.00;;
48623;SDS011;34422;45.802;16.114;2023-04-24T00:35:39;7.10;;;5.80;;
48623;SDS011;34422;45.802;16.114;2023-04-24T00:38:07;8.95;;;5.82;;
48623;SDS011;34422;45.802;16.114;2023-04-24T00:40:33;7.43;;;5.50;;
48623;SDS011;34422;45.802;16.114;2023-04-24T00:43:01;8.82;;;6.55;;
48623;SDS011;34422;45.802;16.114;2023-04-24T00:45:27;8.57;;;5.97;;
48623;SDS011;34422;45.802;16.114;2023-04-24T00:47:54;8.35;;;6.00;;
48623;SDS011;34422;45.802;16.114;2023-04-24T00:50:22;8.32;;;6.15;;
48623;SDS011;34422;45.802;16.114;2023-04-24T00:52:50;8.98;;;6.20;;
48623;SDS011;34422;45.802;16.114;2023-04-24T00:55:17;9.02;;;5.90;;
48623;SDS011;34422;45.802;16.114;2023-04-24T00:57:44;8.82;;;5.93;;
48623;SDS011;34422;45.802;16.114;2023-04-24T01:00:12;9.10;;;6.30;;
48623;SDS011;34422;45.802;16.114;2023-04-24T01:02:40;8.27;;;6.00;;
48623;SDS011;34422;45.802;16.114;2023-04-24T01:05:12;8.05;;;6.00;;
48623;SDS011;34422;45.802;16.114;2023-04-24T01:07:39;7.85;;;5.85;;
48623;SDS011;34422;45.802;16.114;2023-04-24T01:12:37;9.82;;;5.68;;
48623;SDS011;34422;45.802;16.114;2023-04-24T01:15:05;9.13;;;5.85;;
48623;SDS011;34422;45.802;16.114;2023-04-24T01:17:33;8.60;;;6.10;;
48623;SDS011;34422;45.802;16.114;2023-04-24T01:19:59;8.80;;;5.43;;
48623;SDS011;34422;45.802;16.114;2023-04-24T01:22:27;8.70;;;5.45;;
48623;SDS011;34422;45.802;16.114;2023-04-24T01:24:53;9.23;;;6.18;;
48623;SDS011;34422;45.802;16.114;2023-04-24T01:27:20;8.98;;;5.50;;
48623;SDS011;34422;45.802;16.114;2023-04-24T01:29:47;8.95;;;6.13;;
48623;SDS011;34422;45.802;16.114;2023-04-24T01:32:15;9.05;;;6.15;;
48623;SDS011;34422;45.802;16.114;2023-04-24T01:34:42;7.32;;;5.47;;
48623;SDS011;34422;45.802;16.114;2023-04-24T01:37:09;7.45;;;5.50;;
48623;SDS011;34422;45.802;16.114;2023-04-24T01:39:36;9.10;;;5.72;;
48623;SDS011;34422;45.802;16.114;2023-04-24T01:42:04;8.48;;;5.25;;
48623;SDS011;34422;45.802;16.114;2023-04-24T01:44:32;8.60;;;5.88;;
48623;SDS011;34422;45.802;16.114;2023-04-24T01:47:00;9.27;;;6.30;;
48623;SDS011;34422;45.802;16.114;2023-04-24T01:49:28;8.23;;;6.20;;
48623;SDS011;34422;45.802;16.114;2023-04-24T01:51:54;9.48;;;6.38;;
48623;SDS011;34422;45.802;16.114;2023-04-24T01:54:21;7.65;;;5.80;;
48623;SDS011;34422;45.802;16.114;2023-04-24T01:56:48;10.13;;;6.35;;
48623;SDS011;34422;45.802;16.114;2023-04-24T01:59:15;10.23;;;6.05;;
48623;SDS011;34422;45.802;16.114;2023-04-24T02:01:43;8.38;;;5.97;;
48623;SDS011;34422;45.802;16.114;2023-04-24T02:04:10;8.55;;;5.75;;
48623;SDS011;34422;45.802;16.114;2023-04-24T02:06:36;10.00;;;5.88;;
48623;SDS011;34422;45.802;16.114;2023-04-24T02:09:03;9.15;;;6.10;;
48623;SDS011;34422;45.802;16.114;2023-04-24T02:11:30;8.40;;;5.40;;
48623;SDS011;34422;45.802;16.114;2023-04-24T02:13:57;8.43;;;5.68;;
48623;SDS011;34422;45.802;16.114;2023-04-24T02:16:24;9.00;;;5.80;;
48623;SDS011;34422;45.802;16.114;2023-04-24T02:18:51;15.48;;;5.53;;
48623;SDS011;34422;45.802;16.114;2023-04-24T02:21:17;10.43;;;5.07;;
48623;SDS011;34422;45.802;16.114;2023-04-24T02:23:44;8.50;;;5.43;;
48623;SDS011;34422;45.802;16.114;2023-04-24T02:26:11;7.47;;;5.07;;
48623;SDS011;34422;45.802;16.114;2023-04-24T02:28:37;7.35;;;5.15;;
48623;SDS011;34422;45.802;16.114;2023-04-24T02:31:04;8.80;;;6.10;;
48623;SDS011;34422;45.802;16.114;2023-04-24T02:33:32;8.68;;;5.57;;
48623;SDS011;34422;45.802;16.114;2023-04-24T02:35:59;7.78;;;5.45;;
48623;SDS011;34422;45.802;16.114;2023-04-24T02:38:26;7.50;;;4.82;;
48623;SDS011;34422;45.802;16.114;2023-04-24T02:40:52;7.22;;;4.78;;
48623;SDS011;34422;45.802;16.114;2023-04-24T02:43:19;7.63;;;4.90;;
48623;SDS011;34422;45.802;16.114;2023-04-24T02:45:46;9.45;;;5.38;;
48623;SDS011;34422;45.802;16.114;2023-04-24T02:48:13;6.97;;;4.38;;
48623;SDS011;34422;45.802;16.114;2023-04-24T02:50:40;7.55;;;4.30;;
48623;SDS011;34422;45.802;16.114;2023-04-24T02:53:07;6.90;;;4.60;;
48623;SDS011;34422;45.802;16.114;2023-04-24T02:55:33;8.35;;;4.97;;
48623;SDS011;34422;45.802;16.114;2023-04-24T02:58:00;7.88;;;4.95;;
48623;SDS011;34422;45.802;16.114;2023-04-24T03:00:27;10.05;;;5.65;;
48623;SDS011;34422;45.802;16.114;2023-04-24T03:02:54;7.63;;;4.88;;
48623;SDS011;34422;45.802;16.114;2023-04-24T03:05:21;8.73;;;4.85;;
48623;SDS011;34422;45.802;16.114;2023-04-24T03:07:47;7.88;;;5.13;;
48623;SDS011;34422;45.802;16.114;2023-04-24T03:10:14;7.68;;;4.70;;
48623;SDS011;34422;45.802;16.114;2023-04-24T03:12:41;7.45;;;4.75;;
48623;SDS011;34422;45.802;16.114;2023-04-24T03:15:08;9.02;;;5.07;;
48623;SDS011;34422;45.802;16.114;2023-04-24T03:17:35;7.72;;;4.93;;
48623;SDS011;34422;45.802;16.114;2023-04-24T03:20:04;7.10;;;4.50;;
48623;SDS011;34422;45.802;16.114;2023-04-24T03:22:32;7.82;;;5.13;;
48623;SDS011;34422;45.802;16.114;2023-04-24T03:25:00;9.27;;;4.93;;
48623;SDS011;34422;45.802;16.114;2023-04-24T03:27:27;13.45;;;4.95;;
48623;SDS011;34422;45.802;16.114;2023-04-24T03:29:53;8.77;;;5.05;;
48623;SDS011;34422;45.802;16.114;2023-04-24T03:32:21;9.13;;;5.40;;
48623;SDS011;34422;45.802;16.114;2023-04-24T03:34:49;10.55;;;5.38;;
48623;SDS011;34422;45.802;16.114;2023-04-24T03:37:16;7.95;;;5.60;;
48623;SDS011;34422;45.802;16.114;2023-04-24T03:39:43;6.72;;;4.60;;
48623;SDS011;34422;45.802;16.114;2023-04-24T03:42:10;7.55;;;5.10;;
48623;SDS011;34422;45.802;16.114;2023-04-24T03:44:37;9.82;;;6.03;;
48623;SDS011;34422;45.802;16.114;2023-04-24T03:47:03;8.98;;;6.40;;
48623;SDS011;34422;45.802;16.114;2023-04-24T03:49:30;9.50;;;5.15;;
48623;SDS011;34422;45.802;16.114;2023-04-24T03:51:57;9.23;;;5.90;;
48623;SDS011;34422;45.802;16.114;2023-04-24T03:54:24;9.00;;;5.72;;
48623;SDS011;34422;45.802;16.114;2023-04-24T03:56:50;8.57;;;5.38;;
48623;SDS011;34422;45.802;16.114;2023-04-24T03:59:17;8.32;;;5.60;;
48623;SDS011;34422;45.802;16.114;2023-04-24T04:01:44;8.65;;;5.32;;
48623;SDS011;34422;45.802;16.114;2023-04-24T04:04:12;8.57;;;5.60;;
48623;SDS011;34422;45.802;16.114;2023-04-24T04:06:38;8.15;;;4.93;;
48623;SDS011;34422;45.802;16.114;2023-04-24T04:09:05;10.15;;;5.40;;
48623;SDS011;34422;45.802;16.114;2023-04-24T04:11:33;9.32;;;5.32;;
48623;SDS011;34422;45.802;16.114;2023-04-24T04:14:01;8.77;;;4.95;;
48623;SDS011;34422;45.802;16.114;2023-04-24T04:16:29;7.38;;;5.30;;
48623;SDS011;34422;45.802;16.114;2023-04-24T04:18:56;8.48;;;5.63;;
48623;SDS011;34422;45.802;16.114;2023-04-24T04:21:22;6.80;;;4.63;;
48623;SDS011;34422;45.802;16.114;2023-04-24T04:23:49;7.82;;;4.97;;
48623;SDS011;34422;45.802;16.114;2023-04-24T04:26:16;7.43;;;5.13;;
48623;SDS011;34422;45.802;16.114;2023-04-24T04:28:45;7.20;;;5.10;;
48623;SDS011;34422;45.802;16.114;2023-04-24T04:31:14;8.63;;;5.30;;
48623;SDS011;34422;45.802;16.114;2023-04-24T04:33:40;9.65;;;5.40;;
48623;SDS011;34422;45.802;16.114;2023-04-24T04:36:07;7.97;;;5.45;;
48623;SDS011;34422;45.802;16.114;2023-04-24T04:38:35;9.80;;;5.45;;
48623;SDS011;34422;45.802;16.114;2023-04-24T04:41:01;9.27;;;5.68;;
48623;SDS011;34422;45.802;16.114;2023-04-24T04:43:29;10.23;;;5.95;;
48623;SDS011;34422;45.802;16.114;2023-04-24T04:45:57;12.18;;;6.10;;
48623;SDS011;34422;45.802;16.114;2023-04-24T04:48:24;7.82;;;5.55;;
48623;SDS011;34422;45.802;16.114;2023-04-24T04:50:51;12.35;;;6.70;;
48623;SDS011;34422;45.802;16.114;2023-04-24T04:53:17;9.00;;;5.82;;
48623;SDS011;34422;45.802;16.114;2023-04-24T04:55:44;9.85;;;6.18;;
48623;SDS011;34422;45.802;16.114;2023-04-24T04:58:12;11.52;;;6.05;;
48623;SDS011;34422;45.802;16.114;2023-04-24T05:00:39;10.07;;;6.20;;
48623;SDS011;34422;45.802;16.114;2023-04-24T05:03:06;14.15;;;6.93;;
48623;SDS011;34422;45.802;16.114;2023-04-24T05:05:32;12.85;;;7.40;;
48623;SDS011;34422;45.802;16.114;2023-04-24T05:07:59;18.33;;;8.90;;
48623;SDS011;34422;45.802;16.114;2023-04-24T05:10:26;14.55;;;9.38;;
48623;SDS011;34422;45.802;16.114;2023-04-24T05:12:53;11.77;;;7.88;;
48623;SDS011;34422;45.802;16.114;2023-04-24T05:15:20;13.85;;;7.05;;
48623;SDS011;34422;45.802;16.114;2023-04-24T05:17:47;13.35;;;7.93;;
48623;SDS011;34422;45.802;16.114;2023-04-24T05:20:14;9.60;;;6.68;;
48623;SDS011;34422;45.802;16.114;2023-04-24T05:22:41;9.40;;;6.25;;
48623;SDS011;34422;45.802;16.114;2023-04-24T05:25:07;9.57;;;5.32;;
48623;SDS011;34422;45.802;16.114;2023-04-24T05:27:34;11.32;;;5.82;;
48623;SDS011;34422;45.802;16.114;2023-04-24T05:30:01;8.75;;;5.70;;
48623;SDS011;34422;45.802;16.114;2023-04-24T05:32:28;9.70;;;5.90;;
48623;SDS011;34422;45.802;16.114;2023-04-24T05:34:55;10.23;;;5.75;;
48623;SDS011;34422;45.802;16.114;2023-04-24T05:37:21;9.20;;;5.38;;
48623;SDS011;34422;45.802;16.114;2023-04-24T05:39:48;8.85;;;5.38;;
48623;SDS011;34422;45.802;16.114;2023-04-24T05:42:15;9.18;;;5.38;;
48623;SDS011;34422;45.802;16.114;2023-04-24T05:44:42;7.68;;;5.13;;
48623;SDS011;34422;45.802;16.114;2023-04-24T05:47:08;8.98;;;5.63;;
48623;SDS011;34422;45.802;16.114;2023-04-24T05:49:35;12.73;;;7.00;;
48623;SDS011;34422;45.802;16.114;2023-04-24T05:52:02;12.48;;;7.00;;
48623;SDS011;34422;45.802;16.114;2023-04-24T05:54:30;12.57;;;6.38;;
48623;SDS011;34422;45.802;16.114;2023-04-24T05:56:57;9.57;;;6.32;;
48623;SDS011;34422;45.802;16.114;2023-04-24T05:59:24;10.13;;;6.18;;
48623;SDS011;34422;45.802;16.114;2023-04-24T06:01:52;8.82;;;6.03;;
48623;SDS011;34422;45.802;16.114;2023-04-24T06:04:18;12.10;;;7.53;;
48623;SDS011;34422;45.802;16.114;2023-04-24T06:06:45;11.45;;;8.55;;
48623;SDS011;34422;45.802;16.114;2023-04-24T06:09:12;10.52;;;8.23;;
48623;SDS011;34422;45.802;16.114;2023-04-24T06:11:39;10.82;;;7.60;;
48623;SDS011;34422;45.802;16.114;2023-04-24T06:14:05;9.98;;;6.90;;
48623;SDS011;34422;45.802;16.114;2023-04-24T06:16:32;16.23;;;8.95;;
48623;SDS011;34422;45.802;16.114;2023-04-24T06:18:59;13.93;;;8.45;;
48623;SDS011;34422;45.802;16.114;2023-04-24T06:21:26;10.80;;;7.10;;
48623;SDS011;34422;45.802;16.114;2023-04-24T06:23:54;9.73;;;7.38;;
48623;SDS011;34422;45.802;16.114;2023-04-24T06:26:22;12.25;;;7.55;;
48623;SDS011;34422;45.802;16.114;2023-04-24T06:28:51;8.90;;;6.18;;
48623;SDS011;34422;45.802;16.114;2023-04-24T06:31:18;9.82;;;6.47;;
48623;SDS011;34422;45.802;16.114;2023-04-24T06:33:44;14.57;;;7.20;;
48623;SDS011;34422;45.802;16.114;2023-04-24T06:36:12;9.48;;;6.57;;
48623;SDS011;34422;45.802;16.114;2023-04-24T06:38:39;9.23;;;6.32;;
48623;SDS011;34422;45.802;16.114;2023-04-24T06:41:05;12.65;;;7.35;;
48623;SDS011;34422;45.802;16.114;2023-04-24T06:43:32;8.25;;;6.47;;
48623;SDS011;34422;45.802;16.114;2023-04-24T06:45:59;7.90;;;5.82;;
48623;SDS011;34422;45.802;16.114;2023-04-24T06:48:26;8.00;;;5.60;;
48623;SDS011;34422;45.802;16.114;2023-04-24T06:50:53;9.48;;;6.00;;
48623;SDS011;34422;45.802;16.114;2023-04-24T06:53:19;10.60;;;7.03;;
48623;SDS011;34422;45.802;16.114;2023-04-24T06:55:46;10.77;;;7.25;;
48623;SDS011;34422;45.802;16.114;2023-04-24T06:58:13;12.43;;;7.50;;
48623;SDS011;34422;45.802;16.114;2023-04-24T07:00:41;9.50;;;6.50;;
48623;SDS011;34422;45.802;16.114;2023-04-24T07:03:08;13.15;;;8.75;;
48623;SDS011;34422;45.802;16.114;2023-04-24T07:05:34;9.68;;;7.38;;
48623;SDS011;34422;45.802;16.114;2023-04-24T07:08:01;11.02;;;7.68;;
48623;SDS011;34422;45.802;16.114;2023-04-24T07:10:29;11.45;;;7.78;;
48623;SDS011;34422;45.802;16.114;2023-04-24T07:12:56;10.23;;;7.38;;
48623;SDS011;34422;45.802;16.114;2023-04-24T07:15:23;12.07;;;8.40;;
48623;SDS011;34422;45.802;16.114;2023-04-24T07:17:50;13.15;;;7.60;;
48623;SDS011;34422;45.802;16.114;2023-04-24T07:20:16;13.35;;;7.43;;
48623;SDS011;34422;45.802;16.114;2023-04-24T07:22:43;11.68;;;7.53;;
48623;SDS011;34422;45.802;16.114;2023-04-24T07:25:10;9.82;;;6.82;;
48623;SDS011;34422;45.802;16.114;2023-04-24T07:27:36;10.48;;;6.75;;
48623;SDS011;34422;45.802;16.114;2023-04-24T07:30:03;12.60;;;8.50;;
48623;SDS011;34422;45.802;16.114;2023-04-24T07:32:31;12.05;;;7.88;;
48623;SDS011;34422;45.802;16.114;2023-04-24T07:34:58;13.05;;;8.52;;
48623;SDS011;34422;45.802;16.114;2023-04-24T07:37:24;9.68;;;7.30;;
48623;SDS011;34422;45.802;16.114;2023-04-24T07:39:51;12.45;;;7.75;;
48623;SDS011;34422;45.802;16.114;2023-04-24T07:42:18;14.52;;;8.27;;
48623;SDS011;34422;45.802;16.114;2023-04-24T07:44:45;12.00;;;8.18;;
48623;SDS011;34422;45.802;16.114;2023-04-24T07:47:13;12.30;;;8.43;;
48623;SDS011;34422;45.802;16.114;2023-04-24T07:49:42;11.18;;;8.43;;
48623;SDS011;34422;45.802;16.114;2023-04-24T07:52:08;10.27;;;8.13;;
48623;SDS011;34422;45.802;16.114;2023-04-24T07:54:35;12.85;;;7.80;;
48623;SDS011;34422;45.802;16.114;2023-04-24T07:57:03;13.45;;;9.18;;
48623;SDS011;34422;45.802;16.114;2023-04-24T07:59:30;11.65;;;9.25;;
48623;SDS011;34422;45.802;16.114;2023-04-24T08:01:57;11.48;;;7.90;;
48623;SDS011;34422;45.802;16.114;2023-04-24T08:04:24;11.65;;;8.32;;
48623;SDS011;34422;45.802;16.114;2023-04-24T08:06:50;12.57;;;7.95;;
48623;SDS011;34422;45.802;16.114;2023-04-24T08:09:17;10.95;;;7.80;;
48623;SDS011;34422;45.802;16.114;2023-04-24T08:11:44;12.73;;;8.38;;
48623;SDS011;34422;45.802;16.114;2023-04-24T08:14:11;13.45;;;8.48;;
48623;SDS011;34422;45.802;16.114;2023-04-24T08:16:39;12.80;;;8.05;;
48623;SDS011;34422;45.802;16.114;2023-04-24T08:19:06;13.27;;;8.30;;
48623;SDS011;34422;45.802;16.114;2023-04-24T08:21:33;15.55;;;10.18;;
48623;SDS011;34422;45.802;16.114;2023-04-24T08:24:00;14.77;;;9.05;;
48623;SDS011;34422;45.802;16.114;2023-04-24T08:26:31;16.17;;;9.48;;
48623;SDS011;34422;45.802;16.114;2023-04-24T08:28:58;18.20;;;12.10;;
48623;SDS011;34422;45.802;16.114;2023-04-24T08:31:25;18.70;;;11.85;;
48623;SDS011;34422;45.802;16.114;2023-04-24T08:33:52;11.50;;;7.88;;
48623;SDS011;34422;45.802;16.114;2023-04-24T08:36:19;17.88;;;12.40;;
48623;SDS011;34422;45.802;16.114;2023-04-24T08:38:45;16.52;;;11.10;;
48623;SDS011;34422;45.802;16.114;2023-04-24T08:41:13;12.40;;;7.25;;
48623;SDS011;34422;45.802;16.114;2023-04-24T08:43:41;11.32;;;7.00;;
48623;SDS011;34422;45.802;16.114;2023-04-24T08:46:08;17.98;;;7.05;;
48623;SDS011;34422;45.802;16.114;2023-04-24T08:48:36;10.23;;;7.05;;
48623;SDS011;34422;45.802;16.114;2023-04-24T08:51:05;9.60;;;6.95;;
48623;SDS011;34422;45.802;16.114;2023-04-24T08:53:34;9.60;;;6.60;;
48623;SDS011;34422;45.802;16.114;2023-04-24T08:56:01;10.77;;;7.13;;
48623;SDS011;34422;45.802;16.114;2023-04-24T08:58:29;12.52;;;7.30;;
48623;SDS011;34422;45.802;16.114;2023-04-24T09:00:57;9.75;;;6.90;;
48623;SDS011;34422;45.802;16.114;2023-04-24T09:03:26;12.38;;;7.93;;
48623;SDS011;34422;45.802;16.114;2023-04-24T09:05:54;9.95;;;6.88;;
48623;SDS011;34422;45.802;16.114;2023-04-24T09:08:22;11.95;;;7.50;;
48623;SDS011;34422;45.802;16.114;2023-04-24T09:10:50;12.02;;;7.70;;
48623;SDS011;34422;45.802;16.114;2023-04-24T09:13:18;12.77;;;7.97;;
48623;SDS011;34422;45.802;16.114;2023-04-24T09:15:46;10.70;;;8.38;;
48623;SDS011;34422;45.802;16.114;2023-04-24T09:18:12;14.32;;;8.95;;
48623;SDS011;34422;45.802;16.114;2023-04-24T09:20:58;10.05;;;6.38;;
48623;SDS011;34422;45.802;16.114;2023-04-24T09:23:30;12.02;;;8.02;;
48623;SDS011;34422;45.802;16.114;2023-04-24T09:25:58;14.00;;;9.30;;
48623;SDS011;34422;45.802;16.114;2023-04-24T09:31:08;13.18;;;9.68;;
48623;SDS011;34422;45.802;16.114;2023-04-24T09:33:36;14.32;;;11.07;;
48623;SDS011;34422;45.802;16.114;2023-04-24T09:36:03;13.50;;;10.05;;
48623;SDS011;34422;45.802;16.114;2023-04-24T09:38:32;11.88;;;8.45;;
48623;SDS011;34422;45.802;16.114;2023-04-24T09:41:10;12.57;;;8.80;;
48623;SDS011;34422;45.802;16.114;2023-04-24T09:43:40;11.00;;;8.25;;
48623;SDS011;34422;45.802;16.114;2023-04-24T09:46:07;13.30;;;8.50;;
48623;SDS011;34422;45.802;16.114;2023-04-24T09:48:36;16.58;;;9.05;;
48623;SDS011;34422;45.802;16.114;2023-04-24T09:51:04;15.00;;;9.45;;
48623;SDS011;34422;45.802;16.114;2023-04-24T09:53:38;10.95;;;7.28;;
48623;SDS011;34422;45.802;16.114;2023-04-24T09:58:36;11.57;;;7.00;;
48623;SDS011;34422;45.802;16.114;2023-04-24T10:01:03;11.57;;;8.32;;
48623;SDS011;34422;45.802;16.114;2023-04-24T10:03:31;12.40;;;8.13;;
48623;SDS011;34422;45.802;16.114;2023-04-24T10:06:00;11.50;;;7.72;;
48623;SDS011;34422;45.802;16.114;2023-04-24T10:08:35;10.88;;;7.30;;
48623;SDS011;34422;45.802;16.114;2023-04-24T10:11:02;10.55;;;7.38;;
48623;SDS011;34422;45.802;16.114;2023-04-24T10:13:29;10.45;;;6.15;;
48623;SDS011;34422;45.802;16.114;2023-04-24T10:15:56;9.77;;;5.63;;
48623;SDS011;34422;45.802;16.114;2023-04-24T10:18:26;22.08;;;6.30;;
48623;SDS011;34422;45.802;16.114;2023-04-24T10:20:53;10.95;;;6.57;;
48623;SDS011;34422;45.802;16.114;2023-04-24T10:23:21;10.13;;;6.13;;
48623;SDS011;34422;45.802;16.114;2023-04-24T10:25:49;9.32;;;6.20;;
48623;SDS011;34422;45.802;16.114;2023-04-24T10:28:17;10.50;;;6.88;;
48623;SDS011;34422;45.802;16.114;2023-04-24T10:30:45;8.10;;;6.00;;
48623;SDS011;34422;45.802;16.114;2023-04-24T10:33:13;10.93;;;6.25;;
48623;SDS011;34422;45.802;16.114;2023-04-24T10:35:42;9.82;;;6.30;;
48623;SDS011;34422;45.802;16.114;2023-04-24T10:38:21;12.90;;;10.15;;
48623;SDS011;34422;45.802;16.114;2023-04-24T10:40:51;19.30;;;11.65;;
48623;SDS011;34422;45.802;16.114;2023-04-24T10:43:18;13.18;;;9.10;;
48623;SDS011;34422;45.802;16.114;2023-04-24T10:46:01;13.60;;;9.02;;
48623;SDS011;34422;45.802;16.114;2023-04-24T10:48:29;11.45;;;9.40;;
48623;SDS011;34422;45.802;16.114;2023-04-24T10:50:56;14.27;;;9.90;;
48623;SDS011;34422;45.802;16.114;2023-04-24T10:53:24;12.73;;;9.10;;
48623;SDS011;34422;45.802;16.114;2023-04-24T10:55:58;13.32;;;9.48;;
48623;SDS011;34422;45.802;16.114;2023-04-24T10:58:45;13.93;;;9.63;;
48623;SDS011;34422;45.802;16.114;2023-04-24T11:01:25;15.45;;;9.73;;
48623;SDS011;34422;45.802;16.114;2023-04-24T11:03:59;11.35;;;6.65;;
48623;SDS011;34422;45.802;16.114;2023-04-24T11:06:30;16.20;;;12.27;;
48623;SDS011;34422;45.802;16.114;2023-04-24T11:09:17;7.05;;;3.75;;
48623;SDS011;34422;45.802;16.114;2023-04-24T11:11:47;9.32;;;4.45;;
48623;SDS011;34422;45.802;16.114;2023-04-24T11:14:14;10.75;;;5.97;;
48623;SDS011;34422;45.802;16.114;2023-04-24T11:16:45;8.10;;;4.53;;
48623;SDS011;34422;45.802;16.114;2023-04-24T11:19:20;8.27;;;5.03;;
48623;SDS011;34422;45.802;16.114;2023-04-24T11:21:59;7.20;;;4.47;;
48623;SDS011;34422;45.802;16.114;2023-04-24T11:24:29;8.52;;;5.10;;
48623;SDS011;34422;45.802;16.114;2023-04-24T11:30:28;8.18;;;4.50;;
48623;SDS011;34422;45.802;16.114;2023-04-24T11:34:57;8.68;;;5.05;;
48623;SDS011;34422;45.802;16.114;2023-04-24T11:37:40;9.00;;;6.03;;
48623;SDS011;34422;45.802;16.114;2023-04-24T11:40:09;10.68;;;7.05;;
48623;SDS011;34422;45.802;16.114;2023-04-24T11:42:47;10.35;;;5.53;;
48623;SDS011;34422;45.802;16.114;2023-04-24T11:45:16;8.25;;;5.00;;
48623;SDS011;34422;45.802;16.114;2023-04-24T11:47:44;15.13;;;5.38;;
48623;SDS011;34422;45.802;16.114;2023-04-24T11:50:13;7.53;;;5.28;;
48623;SDS011;34422;45.802;16.114;2023-04-24T11:52:42;8.90;;;5.63;;
48623;SDS011;34422;45.802;16.114;2023-04-24T11:57:43;9.75;;;5.40;;
48623;SDS011;34422;45.802;16.114;2023-04-24T12:00:15;9.45;;;5.70;;
48623;SDS011;34422;45.802;16.114;2023-04-24T12:02:43;8.82;;;5.85;;
48623;SDS011;34422;45.802;16.114;2023-04-24T12:05:19;12.13;;;6.40;;
48623;SDS011;34422;45.802;16.114;2023-04-24T12:07:47;9.38;;;6.10;;
48623;SDS011;34422;45.802;16.114;2023-04-24T12:10:14;11.68;;;6.40;;
48623;SDS011;34422;45.802;16.114;2023-04-24T12:12:41;9.10;;;5.95;;
48623;SDS011;34422;45.802;16.114;2023-04-24T12:15:08;8.95;;;5.72;;
48623;SDS011;34422;45.802;16.114;2023-04-24T12:17:35;9.88;;;5.78;;
48623;SDS011;34422;45.802;16.114;2023-04-24T12:20:06;8.70;;;5.97;;
48623;SDS011;34422;45.802;16.114;2023-04-24T12:25:14;8.90;;;5.07;;
48623;SDS011;34422;45.802;16.114;2023-04-24T12:27:43;12.30;;;6.38;;
48623;SDS011;34422;45.802;16.114;2023-04-24T12:30:12;12.00;;;6.22;;
48623;SDS011;34422;45.802;16.114;2023-04-24T12:32:45;11.45;;;6.45;;
48623;SDS011;34422;45.802;16.114;2023-04-24T12:35:18;10.60;;;6.10;;
48623;SDS011;34422;45.802;16.114;2023-04-24T12:37:46;10.82;;;6.60;;
48623;SDS011;34422;45.802;16.114;2023-04-24T12:40:13;9.75;;;6.20;;
48623;SDS011;34422;45.802;16.114;2023-04-24T12:42:42;15.63;;;6.47;;
48623;SDS011;34422;45.802;16.114;2023-04-24T12:45:09;9.52;;;5.13;;
48623;SDS011;34422;45.802;16.114;2023-04-24T12:47:38;10.43;;;4.68;;
48623;SDS011;34422;45.802;16.114;2023-04-24T12:50:09;9.07;;;5.22;;
48623;SDS011;34422;45.802;16.114;2023-04-24T12:52:37;7.55;;;4.30;;
48623;SDS011;34422;45.802;16.114;2023-04-24T12:55:05;7.65;;;4.80;;
48623;SDS011;34422;45.802;16.114;2023-04-24T13:00:03;7.35;;;4.00;;
48623;SDS011;34422;45.802;16.114;2023-04-24T13:02:32;9.77;;;4.78;;
48623;SDS011;34422;45.802;16.114;2023-04-24T13:05:00;10.52;;;4.60;;
48623;SDS011;34422;45.802;16.114;2023-04-24T13:07:27;8.43;;;5.35;;
48623;SDS011;34422;45.802;16.114;2023-04-24T13:09:55;8.63;;;5.10;;
48623;SDS011;34422;45.802;16.114;2023-04-24T13:12:22;8.23;;;5.10;;
48623;SDS011;34422;45.802;16.114;2023-04-24T13:14:53;7.53;;;4.03;;
48623;SDS011;34422;45.802;16.114;2023-04-24T13:17:19;20.50;;;5.28;;
48623;SDS011;34422;45.802;16.114;2023-04-24T13:19:48;11.05;;;7.13;;
48623;SDS011;34422;45.802;16.114;2023-04-24T13:22:16;9.23;;;5.75;;
48623;SDS011;34422;45.802;16.114;2023-04-24T13:24:45;8.80;;;5.07;;
48623;SDS011;34422;45.802;16.114;2023-04-24T13:27:11;8.40;;;5.25;;
48623;SDS011;34422;45.802;16.114;2023-04-24T13:29:38;9.15;;;5.70;;
48623;SDS011;34422;45.802;16.114;2023-04-24T13:32:05;11.10;;;6.43;;
48623;SDS011;34422;45.802;16.114;2023-04-24T13:34:32;11.50;;;6.97;;
48623;SDS011;34422;45.802;16.114;2023-04-24T13:37:00;11.32;;;7.10;;
48623;SDS011;34422;45.802;16.114;2023-04-24T13:39:30;10.82;;;6.07;;
48623;SDS011;34422;45.802;16.114;2023-04-24T13:41:57;9.52;;;7.13;;
48623;SDS011;34422;45.802;16.114;2023-04-24T13:44:24;12.57;;;7.85;;
48623;SDS011;34422;45.802;16.114;2023-04-24T13:46:53;10.00;;;6.13;;
48623;SDS011;34422;45.802;16.114;2023-04-24T13:49:23;10.55;;;6.90;;
48623;SDS011;34422;45.802;16.114;2023-04-24T13:51:54;10.10;;;5.55;;
48623;SDS011;34422;45.802;16.114;2023-04-24T13:54:22;7.95;;;4.97;;
48623;SDS011;34422;45.802;16.114;2023-04-24T13:56:51;9.02;;;6.13;;
48623;SDS011;34422;45.802;16.114;2023-04-24T13:59:19;9.07;;;5.65;;
48623;SDS011;34422;45.802;16.114;2023-04-24T14:01:47;7.80;;;4.72;;
48623;SDS011;34422;45.802;16.114;2023-04-24T14:04:14;11.18;;;6.47;;
48623;SDS011;34422;45.802;16.114;2023-04-24T14:06:41;9.05;;;6.68;;
48623;SDS011;34422;45.802;16.114;2023-04-24T14:09:07;8.82;;;6.15;;
48623;SDS011;34422;45.802;16.114;2023-04-24T14:11:34;13.68;;;10.88;;
48623;SDS011;34422;45.802;16.114;2023-04-24T14:14:01;20.38;;;15.85;;
48623;SDS011;34422;45.802;16.114;2023-04-24T14:16:29;14.02;;;9.38;;
48623;SDS011;34422;45.802;16.114;2023-04-24T14:18:56;11.80;;;6.95;;
48623;SDS011;34422;45.802;16.114;2023-04-24T14:21:23;11.40;;;6.10;;
48623;SDS011;34422;45.802;16.114;2023-04-24T14:23:50;9.68;;;5.97;;
48623;SDS011;34422;45.802;16.114;2023-04-24T14:26:17;9.15;;;5.60;;
48623;SDS011;34422;45.802;16.114;2023-04-24T14:28:44;11.73;;;6.35;;
48623;SDS011;34422;45.802;16.114;2023-04-24T14:31:10;11.52;;;7.78;;
48623;SDS011;34422;45.802;16.114;2023-04-24T14:33:37;11.40;;;7.90;;
48623;SDS011;34422;45.802;16.114;2023-04-24T14:36:04;15.73;;;8.93;;
48623;SDS011;34422;45.802;16.114;2023-04-24T14:38:31;9.63;;;6.65;;
48623;SDS011;34422;45.802;16.114;2023-04-24T14:40:58;9.93;;;6.45;;
48623;SDS011;34422;45.802;16.114;2023-04-24T14:43:25;7.45;;;5.20;;
48623;SDS011;34422;45.802;16.114;2023-04-24T14:45:57;11.70;;;5.40;;
48623;SDS011;34422;45.802;16.114;2023-04-24T14:48:24;7.57;;;5.13;;
48623;SDS011;34422;45.802;16.114;2023-04-24T14:50:51;7.70;;;4.97;;
48623;SDS011;34422;45.802;16.114;2023-04-24T14:53:18;8.00;;;4.82;;